Wall Lake, Iowa
Current Conditions -  °F | °C
As of 1:15 PM on Monday 20 Oct 2014 (Local Time) from KCIN Reporting Station
Clear Clear  
Wind Chill: 70°   Ceiling: Unl
Heat Index: 70°   Visibility: 10mi
Dew Point: 41°   Wind: 8mph
Humidity: 35%   Direction: 320°NW
Pressure: 30.05"   Gusts: 17mph
Location:  42.27°N, 95.09°W
Report Text: KCIN 201815Z AUTO 32007G15KT 10SM CLR 21/05 A3005 RMK AO2
Loading
Personal Weather Stations






























Interactive Weather Map
Tropical Storm Tracking
New forecast layout! Learn more

10-Day Weather Forecast

Advertisements
Track Severe Weather on mobile